Flight Track Log - Related Links

Times and Time Zones

All times are in EDT time to prevent confusion due to time zone crossing. See the ASQ4633 flight status page for this flight to view local times or setup timezone preferences in your user account.


Time Position Orientation Groundspeed Altitude Reporting Facility
EDT Latitude Longitude Course Direction KTS MPH feet Rate Location/Type
Thu 06:44:04 PM 44.4606 -73.2544 196° South 184 212 5,400  Level Boston Center
Thu 06:45:00 PM 44.2403 -73.2239 196° South  Level FlightAware Approximate
Thu 06:45:04 PM 44.3936 -73.2767 193° South 220 253 8,100  Level Boston Center
Thu 06:46:00 PM 44.1680 -73.2580 190° South  Level FlightAware Approximate
Thu 06:46:04 PM 44.3186 -73.2989 192° South 258 297 10,800  Level Boston Center
Thu 06:47:00 PM 44.0917 -73.2771 190° South  Level FlightAware Approximate
Thu 06:47:04 PM 44.2308 -73.3267 193° South 303 349 12,000  Level Boston Center
Thu 06:48:00 PM 44.0166 -73.3034 196° South  Level FlightAware Approximate
Thu 06:48:04 PM 44.1369 -73.3514 191° South 333 383 13,600  Level Boston Center
Thu 06:49:00 PM 43.9419 -73.3333 196° South  Level FlightAware Approximate
Thu 06:49:04 PM 44.0386 -73.3786 191° South 357 411 15,100  Level Boston Center
Thu 06:50:04 PM 43.9406 -73.4089 193° South 363 418 16,600 1,450 Climbing Boston Center
Thu 06:51:04 PM 43.8403 -73.4361 191° South 363 418 18,000 1,450 Climbing Boston Center
Thu 06:52:04 PM 43.7506 -73.4633 192° South 368 423 19,500 1,500 Climbing Boston Center
Thu 06:53:04 PM 43.6503 -73.4875 190° South 375 432 21,000 1,250 Climbing Boston Center
Thu 06:54:04 PM 43.5500 -73.5144 191° South 375 432 22,000 500 Climbing Boston Center
Thu 06:55:04 PM 43.4433 -73.5467 192° South 375 432 22,000  Level Boston Center
Thu 06:56:04 PM 43.3389 -73.5733 191° South 380 437 22,000  Level Boston Center
Thu 06:57:04 PM 43.2322 -73.6000 190° South 385 443 22,000  Level Boston Center
Thu 06:58:04 PM 43.1192 -73.6461 197° South 385 443 22,000  Level Boston Center
Thu 06:59:04 PM 43.0167 -73.6894 197° South 390 449 22,000  Level Boston Center
Thu 07:00:04 PM 42.9183 -73.7328 198° South 390 449 22,000 -100 Level Boston Center
Thu 07:01:04 PM 42.8156 -73.7761 197° South 383 441 21,800 -850 Descending Boston Center
Thu 07:02:04 PM 42.7150 -73.8192 197° South 383 441 20,300 -1,500 Descending Boston Center
Thu 07:03:04 PM 42.6186 -73.8650 199° South 383 441 18,800 -1,400 Descending Boston Center
Thu 07:04:04 PM 42.5306 -73.8994 196° South 370 426 17,500 -1,400 Descending Boston Center
Thu 07:05:04 PM 42.4236 -73.9475 198° South 365 420 16,000 -750 Descending Boston Center
Thu 07:06:04 PM 42.3378 -73.9850 198° South 365 420 16,000  Level Boston Center
Thu 07:07:04 PM 42.2328 -74.0328 199° South 365 420 16,000 50 Level Boston Center
Thu 07:08:04 PM 42.1469 -74.0725 199° South 365 420 16,100  Climbing Boston Center
Thu 07:09:04 PM 42.0525 -74.1122 197° South 365 420 16,000 -50 Descending Boston Center
Thu 07:10:04 PM 41.9456 -74.1594 198° South 365 420 16,000 -350 Level Boston Center
Thu 07:11:04 PM 41.8572 -74.1989 198° South 370 426 15,300 -1,300 Descending Boston Center
Thu 07:12:04 PM 41.7544 -74.2433 198° South 359 413 13,400 -1,850 Descending Boston Center
Thu 07:13:04 PM 41.6789 -74.2775 199° South 341 392 11,600 -1,800 Descending Boston Center
Thu 07:14:04 PM 41.5950 -74.3111 197° South 310 357 9,800 -1,600 Descending Boston Center
Thu 07:15:04 PM 41.5342 -74.3397 199° South 275 316 8,400 -643 Descending Boston Center
Thu 07:16:52 PM 41.4000 -74.4000 199° South 264 304 8,000 -464 Descending New York TRACON
Thu 07:17:52 PM 41.3333 -74.4167 191° South 259 298 7,100 -450 Descending New York TRACON
Thu 07:18:52 PM 41.2667 -74.4500 201° Southwest 227 261 7,100 -200 Level New York TRACON
Thu 07:19:52 PM 41.2167 -74.4833 207° Southwest 225 259 6,700 -500 Descending New York TRACON
Thu 07:20:52 PM 41.1500 -74.5000 191° South 220 253 6,100 -450 Descending New York TRACON
Thu 07:21:52 PM 41.1000 -74.4500 143° Southeast 229 264 5,800 -500 Descending New York TRACON
Thu 07:22:52 PM 41.0667 -74.3833 124° Southeast 232 267 5,100 -367 Descending New York TRACON
Thu 07:24:00 PM 40.9678 -74.3264 185° South  Level Estimated
Thu 07:24:52 PM 40.9833 -74.2667 185° South 203 234 4,700  Level New York TRACON
Thu 07:26:00 PM 40.8789 -74.2314 166° South  Level Estimated
Thu 07:27:52 PM 40.8833 -74.1167 166° South 195 224 3,700  Level New York TRACON

Login

Don't have an account? Register now (free) for customized features, flight alerts, and more!